Time;durP1;ratioP1;P1;durP2;ratioP2;P2;SDS_P1;SDS_P2;PMS_P1;PMS_P2;Temp;Humidity;BMP_temperature;BMP_pressure;BME280_temperature;BME280_humidity;BME280_pressure;Samples;Min_cycle;Max_cycle;Signal;HPM_P1;HPM_P2
2023/12/05 00:00:05;;;;;;;511.15;389.38;;;;;;;;;;5073288;28;20047;-66
2023/12/05 00:02:32;;;;;;;529.05;398.35;;;;;;;;;;5077027;28;20127;-65
2023/12/05 00:04:58;;;;;;;581.17;425.88;;;;;;;;;;5083498;28;20044;-66
2023/12/05 00:07:25;;;;;;;568.60;417.25;;;;;;;;;;5077322;28;20108;-66
2023/12/05 00:09:51;;;;;;;1009.40;680.65;;;;;;;;;;5074267;28;20067;-65
2023/12/05 00:12:17;;;;;;;1999.90;861.58;;;;;;;;;;5095970;28;20040;-66
2023/12/05 00:14:44;;;;;;;1367.70;676.10;;;;;;;;;;5072267;28;20492;-66
2023/12/05 00:17:10;;;;;;;1999.90;897.22;;;;;;;;;;5108008;28;20055;-66
2023/12/05 00:19:36;;;;;;;1999.90;897.70;;;;;;;;;;5112558;28;20043;-66
2023/12/05 00:22:02;;;;;;;1999.90;999.90;;;;;;;;;;5109097;28;20381;-65
2023/12/05 00:24:28;;;;;;;1999.90;999.90;;;;;;;;;;5076852;28;20501;-66
2023/12/05 00:26:54;;;;;;;1999.90;994.97;;;;;;;;;;5091300;28;20075;-65
2023/12/05 00:29:20;;;;;;;1999.90;962.08;;;;;;;;;;5109258;28;20043;-66
2023/12/05 00:31:46;;;;;;;1999.90;999.90;;;;;;;;;;5100232;28;20581;-66
2023/12/05 00:34:13;;;;;;;1999.90;988.50;;;;;;;;;;5082734;28;20093;-64
2023/12/05 00:36:39;;;;;;;1999.90;860.33;;;;;;;;;;5104107;28;20408;-66
2023/12/05 00:39:05;;;;;;;1999.90;894.50;;;;;;;;;;5092948;28;20046;-66
2023/12/05 00:41:31;;;;;;;1999.90;852.67;;;;;;;;;;5074997;28;20123;-66
2023/12/05 00:43:57;;;;;;;1906.05;818.45;;;;;;;;;;5089869;28;20090;-66
2023/12/05 00:46:23;;;;;;;1887.40;815.65;;;;;;;;;;5094296;28;20109;-65
2023/12/05 00:48:49;;;;;;;1732.53;778.10;;;;;;;;;;5093526;28;20081;-66
2023/12/05 00:51:16;;;;;;;1562.30;869.20;;;;;;;;;;5094868;28;20040;-66
2023/12/05 00:53:43;;;;;;;1467.60;838.88;;;;;;;;;;5075479;28;20553;-66
2023/12/05 00:56:14;;;;;;;1455.57;697.63;;;11.40;80.30;;;;;;5073310;28;20101;-66
2023/12/05 00:58:40;;;;;;;1337.80;800.38;;;;;;;;;;5061490;28;20055;-65
2023/12/05 01:01:07;;;;;;;1370.00;675.78;;;11.50;83.60;;;;;;5082935;28;20513;-65
2023/12/05 01:03:33;;;;;;;1250.78;625.65;;;;;;;;;;5110551;28;20412;-66
2023/12/05 01:05:59;;;;;;;1243.93;629.97;;;;;;;;;;5080013;28;20040;-66
2023/12/05 01:08:26;;;;;;;1130.88;581.83;;;;;;;;;;5095659;28;20048;-66
2023/12/05 01:10:52;;;;;;;1079.85;553.83;;;;;;;;;;5058618;28;20040;-65
2023/12/05 01:13:18;;;;;;;1032.75;536.35;;;;;;;;;;5073631;28;20047;-65
2023/12/05 01:15:44;;;;;;;1007.05;519.25;;;;;;;;;;5082931;28;20063;-66
2023/12/05 01:18:11;;;;;;;955.95;491.88;;;;;;;;;;5100360;28;20117;-66
2023/12/05 01:20:37;;;;;;;940.78;493.67;;;;;;;;;;5061704;28;20087;-65
2023/12/05 01:23:03;;;;;;;857.08;445.05;;;;;;;;;;5060287;28;20040;-66
2023/12/05 01:25:29;;;;;;;809.85;417.38;;;;;;;;;;5076464;28;20051;-66
2023/12/05 01:27:56;;;;;;;807.35;421.20;;;;;;;;;;5069190;28;20505;-65
2023/12/05 01:30:22;;;;;;;764.47;385.00;;;;;;;;;;5098686;28;20115;-66
2023/12/05 01:32:48;;;;;;;710.20;360.73;;;;;;;;;;5079422;28;20066;-66
2023/12/05 01:35:14;;;;;;;676.55;341.65;;;;;;;;;;5093698;28;20040;-65
2023/12/05 01:37:40;;;;;;;665.42;333.98;;;;;;;;;;5074840;28;20066;-67
2023/12/05 01:40:09;;;;;;;645.00;317.83;;;;;;;;;;5102055;28;20401;-66
2023/12/05 01:42:36;;;;;;;623.25;309.95;;;;;;;;;;5061308;28;20051;-66
2023/12/05 01:45:03;;;;;;;588.42;287.27;;;;;;;;;;5060316;28;20075;-66
2023/12/05 01:47:29;;;;;;;621.85;305.98;;;;;;;;;;5068343;28;20050;-66
2023/12/05 01:49:55;;;;;;;572.28;271.83;;;;;;;;;;5103821;28;20055;-66
2023/12/05 01:52:21;;;;;;;538.72;253.10;;;;;;;;;;5111170;27;20405;-66
2023/12/05 01:54:48;;;;;;;538.35;253.25;;;;;;;;;;5096656;28;20086;-66
2023/12/05 01:57:14;;;;;;;509.13;241.43;;;;;;;;;;5111902;28;20044;-66
2023/12/05 01:59:40;;;;;;;479.65;215.10;;;;;;;;;;5112596;28;20059;-66
2023/12/05 02:02:06;;;;;;;481.83;303.20;;;;;;;;;;5098461;27;20130;-66
2023/12/05 02:04:32;;;;;;;465.20;209.63;;;;;;;;;;5081859;28;20551;-66
2023/12/05 02:06:59;;;;;;;460.92;201.90;;;;;;;;;;5095035;28;20052;-67
2023/12/05 02:09:25;;;;;;;457.88;204.25;;;;;;;;;;5089410;28;20048;-65
2023/12/05 02:11:51;;;;;;;492.77;234.23;;;;;;;;;;5109188;27;20055;-66
2023/12/05 02:14:19;;;;;;;528.00;253.73;;;;;;;;;;5093777;28;20501;-64
2023/12/05 02:16:47;;;;;;;938.15;509.48;;;;;;;;;;5094255;28;20051;-66
2023/12/05 02:19:25;;;;;;;918.92;500.52;;;;;;;;;;5069074;28;20498;-65
2023/12/05 02:21:52;;;;;;;665.03;356.95;;;;;;;;;;5089591;28;20039;-66
2023/12/05 02:24:30;;;;;;;645.75;343.13;;;10.90;80.60;;;;;;5074921;28;20078;-66
2023/12/05 02:27:16;;;;;;;592.65;302.30;;;10.90;81.40;;;;;;5075773;28;20059;-68
2023/12/05 02:29:52;;;;;;;649.38;338.60;;;;;;;;;;5067206;28;20039;-65
2023/12/05 02:32:18;;;;;;;653.28;348.33;;;;;;;;;;5075984;28;20580;-66
2023/12/05 02:34:45;;;;;;;614.75;322.45;;;;;;;;;;5076079;28;20044;-66
2023/12/05 02:37:11;;;;;;;726.80;421.75;;;;;;;;;;5074902;28;20105;-66
2023/12/05 02:39:41;;;;;;;602.85;327.70;;;10.90;81.20;;;;;;5098034;28;20119;-66
2023/12/05 02:42:10;;;;;;;550.58;291.00;;;11.20;81.30;;;;;;5075342;28;20051;-66
2023/12/05 02:44:41;;;;;;;537.33;285.30;;;11.30;81.50;;;;;;5093165;28;20486;-66
2023/12/05 02:47:08;;;;;;;520.30;265.15;;;;;;;;;;5076000;28;20040;-66
2023/12/05 02:49:34;;;;;;;499.02;254.48;;;;;;;;;;5093049;28;20146;-67
2023/12/05 02:52:00;;;;;;;471.75;235.48;;;;;;;;;;5083734;28;20097;-66
2023/12/05 02:54:26;;;;;;;464.50;231.70;;;;;;;;;;5081253;28;20048;-67
2023/12/05 02:56:52;;;;;;;497.50;242.73;;;;;;;;;;5088529;28;20473;-66
2023/12/05 02:59:19;;;;;;;468.20;313.15;;;;;;;;;;5084682;28;20644;-66
2023/12/05 03:01:45;;;;;;;629.65;321.17;;;;;;;;;;5074036;28;20398;-65
2023/12/05 03:04:11;;;;;;;550.28;274.95;;;;;;;;;;5109939;28;20561;-66
2023/12/05 03:06:37;;;;;;;501.65;246.25;;;;;;;;;;5095562;28;20039;-66
2023/12/05 03:09:04;;;;;;;496.05;241.63;;;;;;;;;;5095085;28;20401;-66
2023/12/05 03:11:31;;;;;;;578.55;293.88;;;;;;;;;;5092522;27;20048;-66
2023/12/05 03:13:57;;;;;;;688.13;349.50;;;;;;;;;;5085861;28;20047;-66
2023/12/05 03:16:23;;;;;;;506.38;247.25;;;;;;;;;;5093174;28;20043;-66
2023/12/05 03:18:49;;;;;;;482.67;230.15;;;;;;;;;;5086039;28;20436;-66
2023/12/05 03:21:16;;;;;;;459.42;215.85;;;;;;;;;;5075602;28;20087;-66
2023/12/05 03:23:43;;;;;;;470.88;228.85;;;;;;;;;;5074998;28;20090;-66
2023/12/05 03:26:09;;;;;;;493.67;238.73;;;;;;;;;;5088465;28;20094;-66
2023/12/05 03:28:35;;;;;;;476.83;316.58;;;;;;;;;;5058075;28;20047;-66
2023/12/05 03:31:01;;;;;;;466.95;306.00;;;;;;;;;;5062497;28;20374;-66
2023/12/05 03:33:27;;;;;;;460.85;215.70;;;;;;;;;;5078783;28;20044;-66
2023/12/05 03:35:53;;;;;;;462.20;212.02;;;;;;;;;;5082605;28;20041;-66
2023/12/05 03:38:19;;;;;;;440.08;199.95;;;;;;;;;;5090470;28;20370;-66
2023/12/05 03:40:45;;;;;;;421.95;192.88;;;;;;;;;;5110550;28;20031;-65
2023/12/05 03:43:11;;;;;;;382.83;176.15;;;;;;;;;;5095564;28;20496;-66
2023/12/05 03:45:38;;;;;;;357.55;161.20;;;;;;;;;;5092673;28;20052;-66
2023/12/05 03:48:04;;;;;;;343.55;155.38;;;;;;;;;;5076702;28;20051;-66
2023/12/05 03:50:30;;;;;;;315.88;146.30;;;;;;;;;;5076204;28;21986;-66
2023/12/05 03:52:56;;;;;;;290.83;133.50;;;;;;;;;;5071339;28;20079;-66
2023/12/05 03:55:22;;;;;;;272.60;126.80;;;;;;;;;;5074657;28;20054;-66
2023/12/05 03:57:48;;;;;;;260.35;122.43;;;;;;;;;;5110060;28;20508;-66
2023/12/05 04:00:15;;;;;;;253.35;117.65;;;;;;;;;;5093408;28;20039;-66
2023/12/05 04:02:41;;;;;;;250.07;157.32;;;;;;;;;;5077338;28;20190;-67
2023/12/05 04:05:07;;;;;;;213.55;100.22;;;;;;;;;;5083968;28;20047;-66
2023/12/05 04:07:33;;;;;;;204.13;95.53;;;;;;;;;;5112784;28;20047;-66
2023/12/05 04:09:59;;;;;;;204.20;132.30;;;;;;;;;;5093060;28;20062;-66
2023/12/05 04:12:25;;;;;;;195.80;125.18;;;;;;;;;;5080132;28;20073;-66
2023/12/05 04:14:52;;;;;;;183.00;86.78;;;;;;;;;;5079811;28;20055;-66
2023/12/05 04:17:18;;;;;;;172.43;78.97;;;;;;;;;;5112724;28;20058;-67
2023/12/05 04:19:44;;;;;;;168.10;111.13;;;;;;;;;;5091796;28;20044;-66
2023/12/05 04:22:10;;;;;;;155.82;75.50;;;;;;;;;;5063563;28;20050;-66
2023/12/05 04:24:37;;;;;;;136.02;66.38;;;;;;;;;;5080083;28;20047;-66
2023/12/05 04:27:03;;;;;;;140.93;90.32;;;;;;;;;;5092522;28;20094;-65
2023/12/05 04:29:29;;;;;;;131.88;86.45;;;;;;;;;;5077546;28;20051;-67
2023/12/05 04:31:57;;;;;;;121.70;58.58;;;;;;;;;;5099307;27;20073;-69
2023/12/05 04:34:23;;;;;;;113.68;55.40;;;;;;;;;;5104727;28;20119;-70
2023/12/05 04:36:50;;;;;;;109.78;53.00;;;;;;;;;;5096178;28;20504;-70
2023/12/05 04:39:16;;;;;;;104.93;72.00;;;12.00;83.00;;;;;;5098777;28;20090;-63
2023/12/05 04:41:42;;;;;;;105.10;69.78;;;12.10;80.50;;;;;;5077207;28;20454;-66
2023/12/05 04:44:08;;;;;;;95.80;65.20;;;;;;;;;;5078832;28;20122;-66
2023/12/05 04:46:37;;;;;;;89.65;44.72;;;;;;;;;;5116509;28;20088;-67
2023/12/05 04:49:05;;;;;;;80.68;42.15;;;;;;;;;;5094507;27;20108;-66
2023/12/05 04:51:31;;;;;;;78.82;54.35;;;;;;;;;;5095743;28;20051;-66
2023/12/05 04:53:58;;;;;;;71.00;50.67;;;;;;;;;;5076992;28;20051;-66
2023/12/05 04:56:24;;;;;;;72.88;50.95;;;;;;;;;;5111288;27;20123;-67
2023/12/05 04:58:50;;;;;;;67.90;46.92;;;;;;;;;;5113560;28;20052;-67
2023/12/05 05:01:16;;;;;;;60.88;44.88;;;;;;;;;;5094827;28;20054;-66
2023/12/05 05:03:42;;;;;;;60.58;32.63;;;;;;;;;;5076718;28;20124;-66
2023/12/05 05:06:09;;;;;;;54.40;29.92;;;;;;;;;;5098123;27;20130;-66
2023/12/05 05:08:35;;;;;;;57.47;40.60;;;;;;;;;;5090417;28;20117;-66
2023/12/05 05:11:01;;;;;;;51.58;28.92;;;;;;;;;;5094963;28;20086;-66
2023/12/05 05:13:27;;;;;;;47.85;26.73;;;;;;;;;;5096365;28;20043;-66
2023/12/05 05:15:53;;;;;;;49.70;36.25;;;;;;;;;;5080486;28;20050;-65
2023/12/05 05:18:19;;;;;;;44.85;24.05;;;;;;;;;;5106861;28;20048;-65
2023/12/05 05:20:45;;;;;;;44.95;23.10;;;;;;;;;;5095532;27;20040;-66
2023/12/05 05:23:11;;;;;;;41.50;22.92;;;;;;;;;;5096421;28;20051;-66
2023/12/05 05:25:38;;;;;;;36.88;22.25;;;;;;;;;;5103621;28;20036;-66
2023/12/05 05:28:04;;;;;;;40.58;22.08;;;;;;;;;;5081959;28;20136;-66
2023/12/05 05:30:30;;;;;;;38.45;20.25;;;;;;;;;;5099369;28;20044;-65
2023/12/05 05:32:56;;;;;;;38.30;29.00;;;;;;;;;;5061722;28;20062;-65
2023/12/05 05:35:22;;;;;;;35.78;19.10;;;;;;;;;;5108895;28;20040;-66
2023/12/05 05:37:48;;;;;;;33.10;18.10;;;;;;;;;;5096500;28;20047;-67
2023/12/05 05:40:14;;;;;;;33.65;17.52;;;;;;;;;;5097675;28;20040;-66
2023/12/05 05:42:40;;;;;;;34.47;17.38;;;;;;;;;;5095295;28;20040;-66
2023/12/05 05:45:07;;;;;;;33.25;18.65;;;;;;;;;;5094909;28;20048;-66
2023/12/05 05:47:33;;;;;;;36.03;19.83;;;;;;;;;;5063639;28;20044;-66
2023/12/05 05:49:59;;;;;;;36.47;20.48;;;;;;;;;;5084498;28;20047;-66
2023/12/05 05:52:25;;;;;;;37.25;21.73;;;;;;;;;;5061317;28;20044;-66
2023/12/05 05:54:52;;;;;;;43.55;23.48;;;;;;;;;;5115046;28;20533;-66
2023/12/05 05:57:18;;;;;;;43.70;25.08;;;;;;;;;;5094821;27;20126;-66
2023/12/05 05:59:44;;;;;;;51.58;26.42;;;;;;;;;;5119341;27;20200;-66
2023/12/05 06:02:12;;;;;;;105.43;45.35;;;;;;;;;;5082273;28;20060;-66
2023/12/05 06:04:41;;;;;;;98.82;45.72;;;;;;;;;;5061281;28;20052;-66
2023/12/05 06:07:08;;;;;;;101.07;43.25;;;;;;;;;;5083945;28;20062;-66
2023/12/05 06:09:34;;;;;;;107.82;41.67;;;;;;;;;;5091963;28;20413;-67
2023/12/05 06:12:00;;;;;;;89.45;36.85;;;;;;;;;;5091221;28;20097;-66
2023/12/05 06:14:27;;;;;;;72.53;33.97;;;;;;;;;;5094903;28;20088;-65
2023/12/05 06:16:53;;;;;;;72.90;30.90;;;;;;;;;;5094282;28;20123;-66
2023/12/05 06:19:19;;;;;;;64.57;31.45;;;;;;;;;;5075503;28;20040;-66
2023/12/05 06:21:45;;;;;;;57.42;25.95;;;;;;;;;;5109388;28;20047;-66
2023/12/05 06:24:11;;;;;;;56.30;26.23;;;;;;;;;;5114809;28;20040;-65
2023/12/05 06:26:37;;;;;;;50.72;25.05;;;;;;;;;;5066944;28;20135;-66
2023/12/05 06:29:07;;;;;;;50.58;23.48;;;;;;;;;;5082690;28;20047;-66
2023/12/05 06:31:33;;;;;;;48.25;23.23;;;;;;;;;;5080138;27;20046;-67
2023/12/05 06:33:59;;;;;;;42.70;22.55;;;;;;;;;;5077939;28;20135;-67
2023/12/05 06:36:25;;;;;;;40.80;20.67;;;;;;;;;;5059504;28;20398;-67
2023/12/05 06:38:51;;;;;;;44.75;20.63;;;;;;;;;;5075176;28;20040;-67
2023/12/05 06:41:18;;;;;;;34.03;18.35;;;;;;;;;;5058769;28;20101;-66
2023/12/05 06:43:44;;;;;;;38.67;18.88;;;;;;;;;;5087216;28;20051;-66
2023/12/05 06:46:10;;;;;;;32.20;16.45;;;;;;;;;;5107604;28;20393;-66
2023/12/05 06:48:36;;;;;;;35.17;17.38;;;;;;;;;;5113798;28;20035;-66
2023/12/05 06:51:02;;;;;;;30.73;17.13;;;;;;;;;;5108268;28;20075;-66
2023/12/05 06:53:29;;;;;;;30.38;15.98;;;;;;;;;;5095644;28;20040;-66
2023/12/05 06:55:55;;;;;;;30.23;15.23;;;;;;;;;;5096049;28;20044;-66
2023/12/05 06:58:22;;;;;;;29.08;14.68;;;;;;;;;;5092270;28;20428;-65
2023/12/05 07:00:48;;;;;;;25.85;14.45;;;;;;;;;;5089955;28;20052;-66
2023/12/05 07:03:15;;;;;;;25.58;14.85;;;;;;;;;;5109085;28;20039;-66
2023/12/05 07:05:41;;;;;;;24.65;13.02;;;;;;;;;;5102792;28;20097;-66
2023/12/05 07:08:08;;;;;;;25.15;13.90;;;;;;;;;;5057950;28;20139;-66
2023/12/05 07:10:34;;;;;;;21.25;13.18;;;;;;;;;;5095297;28;20456;-66
2023/12/05 07:13:00;;;;;;;25.25;13.13;;;;;;;;;;5106135;28;20486;-66
2023/12/05 07:15:26;;;;;;;22.90;12.70;;;;;;;;;;5076045;28;20066;-66
2023/12/05 07:17:52;;;;;;;23.20;13.02;;;;;;;;;;5092939;28;20559;-66
2023/12/05 07:20:19;;;;;;;22.98;12.00;;;;;;;;;;5088329;28;20069;-66
2023/12/05 07:22:45;;;;;;;20.98;12.07;;;;;;;;;;5058207;28;20056;-65
2023/12/05 07:25:11;;;;;;;19.95;11.55;;;;;;;;;;5059164;28;20046;-66
2023/12/05 07:27:37;;;;;;;22.38;12.30;;;;;;;;;;5083254;28;20482;-64
2023/12/05 07:30:03;;;;;;;18.58;10.52;;;;;;;;;;5101155;28;20054;-66
2023/12/05 07:32:29;;;;;;;20.13;10.88;;;;;;;;;;5088978;28;20054;-66
2023/12/05 07:34:56;;;;;;;19.00;11.60;;;;;;;;;;5109590;27;20131;-65
2023/12/05 07:37:22;;;;;;;17.35;10.35;;;;;;;;;;5104711;28;20488;-66
2023/12/05 07:39:49;;;;;;;18.58;10.98;;;;;;;;;;5094807;28;20123;-66
2023/12/05 07:42:15;;;;;;;19.17;10.65;;;;;;;;;;5094425;28;20054;-66
2023/12/05 07:44:41;;;;;;;17.58;9.68;;;;;;;;;;5112366;28;20043;-66
2023/12/05 07:47:07;;;;;;;17.00;10.55;;;;;;;;;;5098687;28;20051;-65
2023/12/05 07:49:34;;;;;;;17.45;9.50;;;;;;;;;;5108450;28;20043;-66
2023/12/05 07:52:01;;;;;;;31.85;11.20;;;;;;;;;;5102195;28;20643;-65
2023/12/05 07:54:27;;;;;;;112.78;15.18;;;;;;;;;;5132953;27;20090;-66
2023/12/05 07:56:53;;;;;;;967.33;633.78;;;;;;;;;;5133357;27;20039;-66
2023/12/05 07:59:19;;;;;;;683.50;411.27;;;;;;;;;;5113562;28;20059;-65
2023/12/05 08:01:46;;;;;;;510.25;289.77;;;;;;;;;;5110903;28;20501;-65
2023/12/05 08:04:12;;;;;;;424.73;232.35;;;;;;;;;;5074045;28;20040;-65
2023/12/05 08:06:39;;;;;;;358.75;199.52;;;;;;;;;;5074420;28;20405;-66
2023/12/05 08:09:06;;;;;;;312.10;168.98;;;;;;;;;;5102880;28;20047;-66
2023/12/05 08:11:32;;;;;;;277.77;156.45;;;;;;;;;;5077766;28;20055;-66
2023/12/05 08:13:58;;;;;;;252.98;147.32;;;;;;;;;;5112623;28;20047;-66
2023/12/05 08:16:24;;;;;;;251.05;144.68;;;;;;;;;;5091871;28;20403;-64
2023/12/05 08:18:50;;;;;;;267.80;163.80;;;;;;;;;;5102012;28;20432;-65
2023/12/05 08:21:16;;;;;;;376.73;243.50;;;;;;;;;;5110429;28;20505;-67
2023/12/05 08:23:43;;;;;;;284.20;239.57;;;;;;;;;;5094524;28;20056;-66
2023/12/05 08:26:09;;;;;;;254.88;211.52;;;;;;;;;;5091820;28;20083;-65
2023/12/05 08:28:36;;;;;;;237.30;196.95;;;;;;;;;;5082866;28;20405;-63
2023/12/05 08:31:02;;;;;;;239.48;155.00;;;13.00;83.10;;;;;;5101678;28;20040;-63
2023/12/05 08:33:28;;;;;;;204.45;164.80;;;13.50;82.00;;;;;;5074462;28;20484;-66
2023/12/05 08:35:55;;;;;;;197.68;159.48;;;;;;;;;;5092250;28;20036;-66
2023/12/05 08:38:21;;;;;;;191.18;150.32;;;;;;;;;;5090963;28;20490;-65
2023/12/05 08:40:47;;;;;;;165.27;134.18;;;;;;;;;;5111320;28;20051;-65
2023/12/05 08:43:13;;;;;;;616.30;493.08;;;;;;;;;;5081861;28;20119;-65
2023/12/05 08:45:39;;;;;;;262.92;206.02;;;;;;;;;;5076553;28;20500;-64
2023/12/05 08:48:05;;;;;;;206.73;160.23;;;;;;;;;;5061096;28;20410;-66
2023/12/05 08:50:32;;;;;;;181.10;144.82;;;;;;;;;;5082979;28;20120;-66
2023/12/05 08:52:58;;;;;;;162.77;130.38;;;;;;;;;;5067329;28;20119;-66
2023/12/05 08:55:24;;;;;;;158.30;125.47;;;;;;;;;;5056951;28;20502;-66
2023/12/05 08:57:50;;;;;;;148.93;123.68;;;;;;;;;;5040476;28;20041;-65
2023/12/05 09:00:17;;;;;;;146.18;123.43;;;;;;;;;;5071578;28;20070;-66
2023/12/05 09:02:43;;;;;;;299.33;267.48;;;;;;;;;;5093183;28;20054;-66
2023/12/05 09:05:09;;;;;;;214.75;191.75;;;;;;;;;;5084535;28;20043;-66
2023/12/05 09:07:35;;;;;;;181.55;162.10;;;;;;;;;;5077415;28;20385;-66
2023/12/05 09:10:02;;;;;;;158.38;141.15;;;;;;;;;;5090545;28;20126;-66
2023/12/05 09:12:28;;;;;;;153.00;136.43;;;;;;;;;;5090443;28;20541;-66
2023/12/05 09:14:54;;;;;;;131.10;117.20;;;;;;;;;;5095808;28;20397;-66
2023/12/05 09:17:20;;;;;;;127.03;113.63;;;;;;;;;;5070426;28;20370;-66
2023/12/05 09:19:46;;;;;;;116.50;103.93;;;;;;;;;;5080598;28;20126;-67
2023/12/05 09:22:12;;;;;;;104.70;93.68;;;;;;;;;;5068078;28;20394;-66
2023/12/05 09:24:39;;;;;;;94.43;84.60;;;;;;;;;;5110707;28;20036;-66
2023/12/05 09:27:05;;;;;;;94.28;84.38;;;;;;;;;;5090444;28;20447;-67
2023/12/05 09:29:31;;;;;;;86.25;77.22;;;;;;;;;;5070390;28;20102;-66
2023/12/05 09:31:58;;;;;;;77.32;69.30;;;;;;;;;;5113968;28;20051;-66
2023/12/05 09:34:24;;;;;;;73.38;65.72;;;;;;;;;;5115410;28;20071;-66
2023/12/05 09:36:50;;;;;;;64.90;57.97;;;;;;;;;;5096752;28;20055;-66
2023/12/05 09:39:16;;;;;;;60.17;54.08;;;;;;;;;;5094671;28;20039;-66
2023/12/05 09:41:52;;;;;;;65.32;58.72;;;13.90;78.10;;;;;;5099198;28;20122;-70
2023/12/05 09:44:21;;;;;;;213.35;192.65;;;;;;;;;;5082034;28;20043;-67
2023/12/05 09:46:48;;;;;;;140.68;126.55;;;;;;;;;;5096822;28;20650;-66
2023/12/05 09:49:14;;;;;;;116.07;105.20;;;;;;;;;;5113066;28;20048;-66
2023/12/05 09:51:40;;;;;;;107.55;97.43;;;;;;;;;;5115354;28;20126;-67
2023/12/05 09:54:06;;;;;;;94.88;86.03;;;;;;;;;;5096699;28;20090;-67
2023/12/05 09:56:32;;;;;;;90.82;82.30;;;;;;;;;;5095352;28;20499;-67
2023/12/05 09:58:59;;;;;;;84.47;76.47;;;;;;;;;;5071269;28;20126;-67
2023/12/05 10:01:25;;;;;;;73.57;66.53;;;;;;;;;;5100375;28;20090;-67
2023/12/05 10:03:56;;;;;;;69.55;63.08;;;;;;;;;;5100666;28;20056;-67
2023/12/05 10:06:24;;;;;;;66.40;60.00;;;14.30;77.80;;;;;;5127328;27;20058;-67
2023/12/05 10:08:51;;;;;;;56.42;51.05;;;;;;;;;;5075119;28;20580;-66
2023/12/05 10:11:20;;;;;;;53.80;48.78;;;14.30;76.80;;;;;;5112450;28;20047;-65
2023/12/05 10:13:46;;;;;;;52.25;47.35;;;;;;;;;;5063237;28;20061;-66
2023/12/05 10:16:13;;;;;;;48.38;43.78;;;;;;;;;;5114488;28;20078;-66
2023/12/05 10:18:39;;;;;;;45.70;41.35;;;14.30;76.30;;;;;;5086781;28;20040;-68
2023/12/05 10:21:05;;;;;;;54.40;49.25;;;;;;;;;;5061569;28;20054;-66
2023/12/05 10:23:32;;;;;;;58.13;52.67;;;;;;;;;;5094075;28;20511;-67
2023/12/05 10:25:58;;;;;;;52.40;47.25;;;;;;;;;;5093669;28;20497;-67
2023/12/05 10:28:25;;;;;;;44.20;39.92;;;;;;;;;;5108450;28;20054;-66
2023/12/05 10:30:51;;;;;;;44.83;40.45;;;;;;;;;;5105520;28;20170;-65
2023/12/05 10:33:19;;;;;;;42.25;38.15;;;14.80;76.90;;;;;;5106001;28;20130;-66
2023/12/05 10:35:45;;;;;;;41.65;37.65;;;15.00;76.30;;;;;;5104423;28;20044;-68
2023/12/05 10:38:12;;;;;;;37.63;34.10;;;;;;;;;;5095994;28;20051;-68
2023/12/05 10:40:54;;;;;;;38.17;34.47;;;14.60;75.40;;;;;;5105970;28;20462;-67
2023/12/05 10:43:20;;;;;;;34.70;31.40;;;;;;;;;;5074172;28;20439;-67
2023/12/05 10:45:47;;;;;;;35.70;32.05;;;;;;;;;;5078910;28;20040;-66
2023/12/05 10:48:16;;;;;;;36.88;31.88;;;;;;;;;;5068277;28;20109;-66
2023/12/05 10:50:43;;;;;;;34.97;28.50;;;;;;;;;;5092846;28;20051;-66
2023/12/05 10:53:09;;;;;;;36.55;26.73;;;14.30;79.20;;;;;;5111917;27;20067;-66
2023/12/05 10:55:36;;;;;;;28.45;25.35;;;;;;;;;;5089738;28;20051;-67
2023/12/05 10:58:02;;;;;;;33.83;23.95;;;;;;;;;;5091112;28;20043;-66
2023/12/05 11:00:29;;;;;;;44.83;24.23;;;;;;;;;;5096429;27;20051;-66
2023/12/05 11:02:56;;;;;;;35.95;22.25;;;;;;;;;;5086852;28;20610;-66
2023/12/05 11:05:24;;;;;;;45.38;21.30;;;;;;;;;;5093178;28;20048;-67
2023/12/05 11:07:52;;;;;;;33.03;23.90;;;;;;;;;;5088726;28;20100;-68
2023/12/05 11:10:18;;;;;;;39.70;27.75;;;;;;;;;;5094724;27;20126;-68
2023/12/05 11:12:49;;;;;;;29.80;24.17;;;14.00;77.30;;;;;;5075126;28;20048;-68
2023/12/05 11:15:21;;;;;;;31.58;21.63;;;;;;;;;;5050380;28;20377;-67
2023/12/05 11:17:53;;;;;;;27.67;24.38;;;13.80;77.10;;;;;;5080787;28;20036;-67
2023/12/05 11:20:33;;;;;;;42.05;32.65;;;;;;;;;;5075177;28;20087;-68
2023/12/05 11:23:09;;;;;;;38.83;29.20;;;;;;;;;;5078596;27;20043;-68
2023/12/05 11:25:54;;;;;;;40.05;27.33;;;;;;;;;;5075717;28;20139;-69
2023/12/05 11:28:44;;;;;;;36.90;26.23;;;13.90;76.60;;;;;;5093251;28;20075;-70
2023/12/05 11:31:10;;;;;;;33.67;28.95;;;;;;;;;;5093208;28;20404;-68
2023/12/05 11:34:10;;;;;;;33.67;27.55;;;13.80;76.70;;;;;;5092767;28;20076;-67
2023/12/05 11:36:55;;;;;;;32.50;25.73;;;;;;;;;;5092099;28;20394;-67
2023/12/05 11:39:20;;;;;;;28.40;24.48;;;14.00;80.20;;;;;;5106060;28;20043;-67
2023/12/05 11:42:06;;;;;;;27.90;22.95;;;13.80;76.80;;;;;;5091471;28;20493;-67
2023/12/05 11:44:35;;;;;;;25.25;22.75;;;;;;;;;;5073570;28;20044;-68
2023/12/05 11:47:03;;;;;;;27.77;21.80;;;;;;;;;;5094813;28;20054;-68
2023/12/05 11:50:02;;;;;;;23.98;21.38;;;13.80;78.40;;;;;;5076709;28;20056;-68
2023/12/05 11:52:28;;;;;;;22.98;20.45;;;;;;;;;;5059723;28;20063;-68
2023/12/05 11:54:54;;;;;;;23.40;19.58;;;;;;;;;;5074488;28;20123;-64
2023/12/05 11:57:24;;;;;;;25.48;20.35;;;13.70;80.70;;;;;;5112985;28;20054;-64
2023/12/05 11:59:54;;;;;;;22.25;19.85;;;;;;;;;;5109619;28;20077;-64
2023/12/05 12:02:41;;;;;;;21.85;19.60;;;;;;;;;;5057850;28;20744;-64
2023/12/05 12:05:10;;;;;;;22.77;19.20;;;;;;;;;;5096403;28;20054;-64
2023/12/05 12:07:58;;;;;;;51.45;40.75;;;13.50;77.60;;;;;;5071762;28;20435;-66
2023/12/05 12:10:25;;;;;;;23.98;20.58;;;;;;;;;;5078874;28;20066;-66
2023/12/05 12:12:55;;;;;;;23.25;20.73;;;;;;;;;;5112840;28;20050;-66
2023/12/05 12:15:21;;;;;;;31.38;24.98;;;;;;;;;;5061604;28;20154;-66
2023/12/05 12:17:48;;;;;;;29.33;23.77;;;;;;;;;;5075007;28;20136;-67
2023/12/05 12:20:17;;;;;;;33.40;27.85;;;13.20;79.30;;;;;;5073606;28;20182;-66
2023/12/05 12:22:43;;;;;;;34.08;28.50;;;;;;;;;;5059375;28;20043;-66
2023/12/05 12:25:13;;;;;;;30.98;27.60;;;13.10;81.80;;;;;;5055344;28;20089;-66
2023/12/05 12:27:42;;;;;;;34.03;29.35;;;13.10;79.70;;;;;;5078160;28;20047;-66
2023/12/05 12:30:09;;;;;;;42.03;33.65;;;12.90;82.00;;;;;;5089801;28;20074;-67
2023/12/05 12:32:36;;;;;;;45.85;39.97;;;;;;;;;;5107445;28;20126;-66
2023/12/05 12:35:02;;;;;;;294.42;266.58;;;;;;;;;;5094388;28;20541;-66
2023/12/05 12:37:29;;;;;;;142.05;128.23;;;13.00;79.70;;;;;;5093280;28;20101;-66
2023/12/05 12:39:55;;;;;;;133.43;120.80;;;;;;;;;;5074224;28;20094;-66
2023/12/05 12:42:21;;;;;;;123.05;111.25;;;;;;;;;;5093654;28;20106;-66
2023/12/05 12:44:48;;;;;;;110.45;100.32;;;;;;;;;;5093699;28;20052;-65
2023/12/05 12:47:14;;;;;;;99.75;90.47;;;;;;;;;;5088999;28;20074;-66
2023/12/05 12:49:40;;;;;;;93.07;84.45;;;;;;;;;;5060271;28;20131;-67
2023/12/05 12:52:06;;;;;;;108.38;97.57;;;;;;;;;;5073109;28;20055;-69
2023/12/05 12:54:33;;;;;;;127.07;114.68;;;;;;;;;;5096162;28;20127;-68
2023/12/05 12:57:00;;;;;;;101.25;90.95;;;;;;;;;;5075440;28;20071;-67
2023/12/05 12:59:26;;;;;;;90.40;81.25;;;;;;;;;;5064669;28;20393;-68
2023/12/05 13:01:53;;;;;;;81.35;73.40;;;;;;;;;;5115924;28;20123;-67
2023/12/05 13:04:19;;;;;;;77.13;68.93;;;;;;;;;;5086471;28;20052;-66
2023/12/05 13:06:48;;;;;;;71.60;64.38;;;;;;;;;;5095308;28;20074;-66
2023/12/05 13:09:18;;;;;;;68.45;61.05;;;14.00;77.90;;;;;;5083699;28;20643;-73
2023/12/05 13:11:44;;;;;;;64.30;57.75;;;;;;;;;;5060685;28;20054;-66
2023/12/05 13:14:11;;;;;;;63.63;52.42;;;;;;;;;;5060699;28;20044;-67
2023/12/05 13:16:38;;;;;;;65.05;51.10;;;;;;;;;;5095385;28;20039;-66
2023/12/05 13:19:04;;;;;;;57.55;51.80;;;;;;;;;;5092608;28;20048;-68
2023/12/05 13:21:34;;;;;;;51.20;45.63;;;14.20;78.40;;;;;;5106089;28;20093;-71
2023/12/05 13:24:01;;;;;;;48.42;43.47;;;14.50;78.70;;;;;;5111788;28;20042;-70
2023/12/05 13:26:27;;;;;;;50.20;43.90;;;;;;;;;;5100404;28;20500;-68
2023/12/05 13:28:54;;;;;;;46.58;41.67;;;;;;;;;;5076647;28;20405;-68
2023/12/05 13:31:20;;;;;;;60.50;54.08;;;;;;;;;;5107650;28;20032;-68
2023/12/05 13:33:47;;;;;;;52.47;46.75;;;;;;;;;;5076367;28;20052;-69
2023/12/05 13:36:13;;;;;;;51.38;45.85;;;14.90;77.60;;;;;;5077363;28;20062;-69
2023/12/05 13:38:40;;;;;;;45.38;40.55;;;;;;;;;;5109347;28;20123;-69
2023/12/05 13:41:06;;;;;;;46.17;41.22;;;15.10;79.90;;;;;;5076891;28;20047;-68
2023/12/05 13:43:32;;;;;;;43.15;38.55;;;15.10;79.70;;;;;;5108446;27;20049;-69
2023/12/05 13:45:58;;;;;;;90.57;81.03;;;;;;;;;;5096748;27;20366;-69
2023/12/05 13:48:25;;;;;;;128.27;114.22;;;;;;;;;;5094500;28;20065;-69
2023/12/05 13:50:51;;;;;;;93.03;83.00;;;;;;;;;;5094636;28;20084;-69